Time;durP1;ratioP1;P1;durP2;ratioP2;P2;SDS_P1;SDS_P2;PMS_P1;PMS_P2;Temp;Humidity;BMP_temperature;BMP_pressure;BME280_temperature;BME280_humidity;BME280_pressure;Samples;Min_cycle;Max_cycle;Signal;HPM_P1;HPM_P2
2023/09/15 00:01:44;;;;;;;687.45;388.17;;;;;;;;;;5026527;28;20486;-70
2023/09/15 00:04:12;;;;;;;585.50;326.58;;;;;;;;;;5031164;28;20431;-70
2023/09/15 00:06:40;;;;;;;642.17;321.33;;;;;;;;;;5028491;28;20461;-70
2023/09/15 00:09:15;;;;;;;815.70;322.40;;;;;;;;;;5026752;28;20459;-70
2023/09/15 00:11:42;;;;;;;739.15;329.63;;;;;;;;;;5025338;28;20434;-70
2023/09/15 00:14:10;;;;;;;817.03;362.42;;;;;;;;;;5021804;28;20427;-69
2023/09/15 00:16:44;;;;;;;838.33;301.30;;;;;;;;;;5025809;28;20426;-70
2023/09/15 00:19:15;;;;;;;811.28;324.40;;;;;;;;;;5026343;28;20547;-69
2023/09/15 00:21:43;;;;;;;763.40;311.10;;;;;;;;;;5024616;28;20457;-70
2023/09/15 00:24:11;;;;;;;814.57;319.33;;;;;;;;;;5026893;28;20913;-70
2023/09/15 00:26:38;;;;;;;795.03;333.35;;;;;;;;;;5023895;28;20434;-70
2023/09/15 00:29:07;;;;;;;776.85;381.42;;;;;;;;;;5020448;28;20430;-71
2023/09/15 00:31:35;;;;;;;675.45;304.80;;;;;;;;;;5025961;28;20496;-69
2023/09/15 00:34:04;;;;;;;704.03;317.85;;;;;;;;;;5024297;28;20881;-70
2023/09/15 00:36:32;;;;;;;796.10;360.98;;;;;;;;;;5017467;28;20427;-70
2023/09/15 00:39:01;;;;;;;779.13;383.55;;;;;;;;;;5027923;28;20441;-71
2023/09/15 00:41:28;;;;;;;811.72;320.52;;;;;;;;;;5028749;28;20435;-71
2023/09/15 00:43:55;;;;;;;549.10;323.17;;;;;;;;;;5024760;28;20530;-70
2023/09/15 00:46:22;;;;;;;770.25;330.50;;;;;;;;;;5026332;28;20522;-70
2023/09/15 00:48:55;;;;;;;791.00;314.88;;;;;;;;;;5025282;28;20518;-70
2023/09/15 00:51:22;;;;;;;797.75;327.00;;;;;;;;;;5025214;28;21328;-70
2023/09/15 00:53:52;;;;;;;763.50;332.85;;;;;;;;;;5027349;28;20515;-70
2023/09/15 00:56:20;;;;;;;796.45;312.10;;;;;;;;;;5039284;28;20980;-70
2023/09/15 00:58:47;;;;;;;784.50;329.87;;;;;;;;;;5043249;28;20479;-70
2023/09/15 01:01:16;;;;;;;802.05;339.13;;;;;;;;;;5018188;28;20625;-70
2023/09/15 01:03:44;;;;;;;774.50;374.63;;;;;;;;;;5025485;28;20863;-70
2023/09/15 01:06:12;;;;;;;811.60;371.90;;;;;;;;;;5023690;28;20442;-70
2023/09/15 01:08:41;;;;;;;803.63;404.85;;;;;;;;;;5025350;28;20457;-70
2023/09/15 01:11:10;;;;;;;814.33;421.70;;;;;;;;;;5035537;28;20461;-70
2023/09/15 01:13:37;;;;;;;818.70;382.77;;;;;;;;;;5033177;28;20449;-70
2023/09/15 01:16:04;;;;;;;819.90;433.85;;;;;;;;;;5026602;28;20797;-71
2023/09/15 01:18:37;;;;;;;817.22;438.08;;;;;;;;;;5042689;28;20530;-70
2023/09/15 01:21:14;;;;;;;823.25;402.83;;;;;;;;;;5040165;28;20476;-70
2023/09/15 01:23:43;;;;;;;820.30;409.83;;;;;;;;;;5027505;28;20513;-70
2023/09/15 01:26:19;;;;;;;812.67;473.60;;;;;;;;;;5028748;28;20431;-70
2023/09/15 01:29:05;;;;;;;811.90;452.23;;;;;;;;;;5042090;28;20969;-70
2023/09/15 01:31:33;;;;;;;813.13;440.20;;;;;;;;;;5026106;28;20983;-70
2023/09/15 01:34:00;;;;;;;790.13;371.58;;;;;;;;;;5024452;28;20454;-70
2023/09/15 01:36:28;;;;;;;802.83;449.08;;;;;;;;;;5027254;28;20454;-70
2023/09/15 01:38:55;;;;;;;794.97;471.30;;;;;;;;;;5043189;28;20605;-70
2023/09/15 01:41:25;;;;;;;799.25;416.58;;;;;;;;;;5049152;28;20437;-70
2023/09/15 01:43:53;;;;;;;792.50;466.83;;;;;;;;;;5022978;28;20957;-70
2023/09/15 01:46:23;;;;;;;801.05;463.13;;;;;;;;;;5027535;28;20540;-70
2023/09/15 01:48:52;;;;;;;810.55;448.92;;;;;;;;;;5023631;28;20418;-71
2023/09/15 01:51:21;;;;;;;809.58;443.58;;;;;;;;;;5036085;28;20514;-70
2023/09/15 01:53:51;;;;;;;815.28;421.67;;;;;;;;;;5020581;28;20438;-70
2023/09/15 01:56:18;;;;;;;747.53;411.48;;;;;;;;;;5039796;28;20431;-71
2023/09/15 01:58:46;;;;;;;736.25;432.70;;;;;;;;;;5022953;28;20901;-71
2023/09/15 02:01:13;;;;;;;744.97;414.60;;;;;;;;;;5034873;28;20432;-71
2023/09/15 02:03:41;;;;;;;715.58;441.10;;;;;;;;;;5028439;28;20441;-71
2023/09/15 02:06:08;;;;;;;695.85;435.15;;;;;;;;;;5025952;28;20552;-71
2023/09/15 02:08:35;;;;;;;701.55;435.23;;;;;;;;;;5025120;28;20431;-69
2023/09/15 02:11:03;;;;;;;702.70;433.10;;;;;;;;;;4964476;28;1780883;-71
2023/09/15 02:13:30;;;;;;;698.70;434.70;;;;;;;;;;5022736;28;20437;-70
2023/09/15 02:16:00;;;;;;;701.67;429.67;;;;;;;;;;5023860;28;20485;-71
2023/09/15 02:18:30;;;;;;;696.63;432.23;;;;;;;;;;5037627;28;20435;-69
2023/09/15 02:20:57;;;;;;;687.22;420.55;;;;;;;;;;5029168;28;20481;-69
2023/09/15 02:23:24;;;;;;;679.83;410.10;;;;;;;;;;5027785;28;20438;-69
2023/09/15 02:25:52;;;;;;;674.40;401.92;;;;;;;;;;5033810;28;20435;-70
2023/09/15 02:28:19;;;;;;;658.78;385.60;;;;;;;;;;5024542;28;20999;-70
2023/09/15 02:30:49;;;;;;;651.53;382.15;;;;;;;;;;5022638;28;20439;-69
2023/09/15 02:33:16;;;;;;;654.10;368.77;;;;;;;;;;5027036;28;20439;-70
2023/09/15 02:35:43;;;;;;;664.55;353.75;;;;;;;;;;5024169;28;20462;-70
2023/09/15 02:38:10;;;;;;;687.78;239.57;;;;;;;;;;5030083;28;20461;-70
2023/09/15 02:40:43;;;;;;;698.28;213.93;;;;;;;;;;5023771;28;20431;-70
2023/09/15 02:43:10;;;;;;;718.83;240.63;;;;;;;;;;5042599;28;20435;-69
2023/09/15 02:45:38;;;;;;;727.67;242.10;;;;;;;;;;5028199;28;20447;-70
2023/09/15 02:48:07;;;;;;;703.53;265.15;;;;;;;;;;5028581;28;20461;-70
2023/09/15 02:50:40;;;;;;;684.80;277.05;;;;;;;;;;5021836;28;20436;-70
2023/09/15 02:53:07;;;;;;;607.83;273.48;;;;;;;;;;5026037;28;20435;-70
2023/09/15 02:55:37;;;;;;;684.50;280.00;;;;;;;;;;5026287;28;20433;-70
2023/09/15 02:58:05;;;;;;;685.88;284.05;;;;;;;;;;5036532;28;20427;-70
2023/09/15 03:00:32;;;;;;;575.60;302.73;;;;;;;;;;5037528;28;20948;-69
2023/09/15 03:03:00;;;;;;;593.10;396.67;;;;;;;;;;5035841;28;20979;-70
2023/09/15 03:05:27;;;;;;;702.03;309.08;;;;;;;;;;5043056;28;20438;-70
2023/09/15 03:07:57;;;;;;;703.50;347.95;;;;;;;;;;5028122;28;20435;-71
2023/09/15 03:10:24;;;;;;;668.65;366.08;;;;;;;;;;5026747;28;20517;-70
2023/09/15 03:12:51;;;;;;;662.70;376.05;;;;;;;;;;5033017;28;20437;-70
2023/09/15 03:15:19;;;;;;;699.38;336.80;;;;;;;;;;5028003;28;20421;-70
2023/09/15 03:17:46;;;;;;;728.33;270.27;;;;;;;;;;5027599;28;20438;-70
2023/09/15 03:20:15;;;;;;;743.47;256.58;;;;;;;;;;5044939;28;20479;-71
2023/09/15 03:22:46;;;;;;;738.17;275.42;;;;;;;;;;5046336;28;20435;-70
2023/09/15 03:25:14;;;;;;;739.38;322.63;;;;;;;;;;5027775;28;20442;-71
2023/09/15 03:27:42;;;;;;;591.45;289.60;;;;;;;;;;5032657;28;20435;-71
2023/09/15 03:30:10;;;;;;;675.65;311.45;;;;;;;;;;5024029;28;20435;-71
2023/09/15 03:32:37;;;;;;;621.15;314.38;;;;;;;;;;5027794;28;21129;-72
2023/09/15 03:35:06;;;;;;;683.00;333.08;;;;;;;;;;5057511;28;20545;-71
2023/09/15 03:37:34;;;;;;;646.08;319.92;;;;;;;;;;5038214;28;20506;-72
2023/09/15 03:40:02;;;;;;;714.58;312.45;;;;;;;;;;5032025;28;20516;-71
2023/09/15 03:42:29;;;;;;;652.47;310.88;;;;;;;;;;5049283;28;20444;-71
2023/09/15 03:44:56;;;;;;;640.65;310.83;;;;;;;;;;5031846;28;20553;-71
2023/09/15 03:47:23;;;;;;;628.35;324.67;;;;;;;;;;5027955;28;20529;-71
2023/09/15 03:49:51;;;;;;;736.63;364.10;;;;;;;;;;5029370;28;20998;-71
2023/09/15 03:52:18;;;;;;;719.78;305.17;;;;;;;;;;5026037;28;20423;-71
2023/09/15 03:54:45;;;;;;;651.80;291.20;;;;;;;;;;5048031;28;20435;-71
2023/09/15 03:57:13;;;;;;;754.83;268.42;;;;;;;;;;5037032;28;20493;-71
2023/09/15 03:59:40;;;;;;;730.70;286.83;;;;;;;;;;5035937;28;20435;-72
2023/09/15 04:02:08;;;;;;;761.20;276.55;;;;;;;;;;5049785;28;20493;-71
2023/09/15 04:04:39;;;;;;;764.05;299.15;;;;;;;;;;5032988;28;20437;-70
2023/09/15 04:07:09;;;;;;;751.10;296.70;;;;;;;;;;5032317;28;20842;-71
2023/09/15 04:09:36;;;;;;;782.67;279.00;;;;;;;;;;5024779;28;20523;-70
2023/09/15 04:12:06;;;;;;;757.40;300.67;;;;;;;;;;5047175;28;20472;-71
2023/09/15 04:14:34;;;;;;;770.33;282.38;;;;;;;;;;5025818;28;20423;-71
2023/09/15 04:17:04;;;;;;;759.30;312.58;;;;;;;;;;5029353;28;20822;-71
2023/09/15 04:19:31;;;;;;;716.78;392.33;;;;;;;;;;5022926;28;20505;-71
2023/09/15 04:22:01;;;;;;;780.40;274.27;;;;;;;;;;5026419;28;20434;-71
2023/09/15 04:24:28;;;;;;;777.27;269.87;;;;;;;;;;5026134;28;20444;-71
2023/09/15 04:26:55;;;;;;;740.53;341.15;;;;;;;;;;5026201;28;20959;-71
2023/09/15 04:29:23;;;;;;;751.42;326.98;;;;;;;;;;5025890;28;20473;-71
2023/09/15 04:31:50;;;;;;;724.75;367.88;;;;;;;;;;5026235;28;20437;-71
2023/09/15 04:34:20;;;;;;;717.78;379.70;;;;;;;;;;5039531;28;20544;-71
2023/09/15 04:36:49;;;;;;;682.38;392.88;;;;;;;;;;5022415;28;20929;-71
2023/09/15 04:39:17;;;;;;;728.17;303.77;;;;;;;;;;5026498;28;20435;-71
2023/09/15 04:41:47;;;;;;;707.70;341.80;;;;;;;;;;5027695;28;20877;-71
2023/09/15 04:44:14;;;;;;;686.40;381.55;;;;;;;;;;5020090;28;20493;-70
2023/09/15 04:46:42;;;;;;;674.08;383.08;;;;;;;;;;5025425;28;20443;-71
2023/09/15 04:49:09;;;;;;;732.22;295.65;;;;;;;;;;5022565;28;21120;-71
2023/09/15 04:51:36;;;;;;;703.60;315.50;;;;;;;;;;5023667;28;20438;-71
2023/09/15 04:54:06;;;;;;;719.63;298.88;;;;;;;;;;5038352;28;20431;-71
2023/09/15 04:56:33;;;;;;;713.30;309.13;;;;;;;;;;5022993;28;20513;-71
2023/09/15 04:59:00;;;;;;;718.47;305.52;;;;;;;;;;5026464;28;20465;-71
2023/09/15 05:01:27;;;;;;;740.45;281.92;;;;;;;;;;5028853;28;20469;-70
2023/09/15 05:03:54;;;;;;;673.03;382.10;;;;;;;;;;5018166;28;20467;-69
2023/09/15 05:06:22;;;;;;;710.10;326.75;;;;;;;;;;5022274;28;20431;-68
2023/09/15 05:08:49;;;;;;;754.30;226.77;;;;;;;;;;5021796;28;20492;-68
2023/09/15 05:11:16;;;;;;;722.42;274.17;;;;;;;;;;5010752;28;20435;-70
2023/09/15 05:13:43;;;;;;;714.83;304.25;;;;;;;;;;5018550;28;20520;-69
2023/09/15 05:16:10;;;;;;;664.63;392.13;;;;;;;;;;5019119;28;20431;-69
2023/09/15 05:18:38;;;;;;;661.38;386.17;;;;;;;;;;5038700;28;20564;-70
2023/09/15 05:21:05;;;;;;;657.25;378.92;;;;;;;;;;5020076;28;20434;-69
2023/09/15 05:23:35;;;;;;;654.10;372.27;;;;;;;;;;5020681;28;20430;-69
2023/09/15 05:26:02;;;;;;;653.22;369.98;;;;;;;;;;5026353;28;20438;-70
2023/09/15 05:28:30;;;;;;;651.40;370.27;;;;;;;;;;5026157;28;20513;-70
2023/09/15 05:30:59;;;;;;;652.72;368.75;;;;;;;;;;5054856;28;20442;-69
2023/09/15 05:33:27;;;;;;;654.63;372.38;;;;;;;;;;5024591;28;20444;-69
2023/09/15 05:35:57;;;;;;;655.75;372.05;;;;;;;;;;5038014;28;20427;-70
2023/09/15 05:38:25;;;;;;;656.58;372.95;;;;;;;;;;5023871;28;20438;-70
2023/09/15 05:40:52;;;;;;;657.93;373.30;;;;;;;;;;5021085;28;20458;-70
2023/09/15 05:43:22;;;;;;;668.17;378.98;;;;;;;;;;5023206;28;20447;-70
2023/09/15 05:45:50;;;;;;;670.50;377.90;;;;;;;;;;5025864;28;20431;-70
2023/09/15 05:48:22;;;;;;;673.03;381.33;;;;;;;;;;5026093;28;20474;-70
2023/09/15 05:50:50;;;;;;;673.20;383.67;;;;;;;;;;5023046;28;20522;-70
2023/09/15 05:53:17;;;;;;;675.47;386.10;;;;;;;;;;5026900;28;21091;-70
2023/09/15 05:55:44;;;;;;;678.73;382.43;;;;;;;;;;5023852;28;20431;-70
2023/09/15 05:58:12;;;;;;;689.30;394.70;;;;;;;;;;5020949;28;20516;-69
2023/09/15 06:00:39;;;;;;;690.65;394.50;;;;;;;;;;5025561;28;20571;-70
2023/09/15 06:03:12;;;;;;;683.33;389.70;;;;;;;;;;5025947;28;20929;-70
2023/09/15 06:05:39;;;;;;;707.13;416.95;;;;;;;;;;5042488;28;20850;-70
2023/09/15 06:08:08;;;;;;;742.78;449.70;;;;;;;;;;5019463;28;20441;-70
2023/09/15 06:10:36;;;;;;;762.03;465.35;;;;;;;;;;5007580;28;20469;-71
2023/09/15 06:13:03;;;;;;;777.00;480.92;;;;;;;;;;5019738;28;20809;-72
2023/09/15 06:15:30;;;;;;;785.67;492.10;;;;;;;;;;5019210;28;20424;-70
2023/09/15 06:17:57;;;;;;;798.10;504.40;;;;;;;;;;5019820;28;20922;-71
2023/09/15 06:20:26;;;;;;;808.28;536.58;;;;;;;;;;5030631;28;20435;-71
2023/09/15 06:22:54;;;;;;;811.67;532.17;;;;;;;;;;5017257;28;20522;-72
2023/09/15 06:25:21;;;;;;;807.33;530.30;;;;;;;;;;5018474;28;20430;-71
2023/09/15 06:27:49;;;;;;;813.77;550.50;;;;;;;;;;5022866;28;20426;-73
2023/09/15 06:30:16;;;;;;;816.70;552.15;;;;;;;;;;5020320;28;20530;-73
2023/09/15 06:32:43;;;;;;;817.23;549.53;;;;;;;;;;5023136;28;20525;-71
2023/09/15 06:35:12;;;;;;;816.20;550.83;;;;;;;;;;5022253;28;20533;-71
2023/09/15 06:37:43;;;;;;;824.03;566.95;;;;;;;;;;5025084;28;20435;-70
2023/09/15 06:40:13;;;;;;;819.60;553.88;;;;;;;;;;5021764;28;20935;-72
2023/09/15 06:42:41;;;;;;;827.92;573.05;;;;;;;;;;5022820;28;20533;-71
2023/09/15 06:45:10;;;;;;;830.97;571.28;;;;;;;;;;5017844;28;20919;-70
2023/09/15 06:47:37;;;;;;;832.97;578.65;;;;;;;;;;5025626;28;20862;-72
2023/09/15 06:50:05;;;;;;;828.97;576.20;;;;;;;;;;5022170;28;20465;-72
2023/09/15 06:52:32;;;;;;;828.75;576.15;;;;;;;;;;5023384;28;20775;-71
2023/09/15 06:54:59;;;;;;;829.75;575.58;;;;;;;;;;5020199;28;20441;-72
2023/09/15 06:57:27;;;;;;;832.63;585.20;;;;;;;;;;5022842;28;20906;-75
2023/09/15 06:59:54;;;;;;;836.08;583.92;;;;;;;;;;5019757;28;20815;-71
2023/09/15 07:02:21;;;;;;;841.10;585.65;;;;;;;;;;5020278;28;20530;-73
2023/09/15 07:04:48;;;;;;;831.85;580.67;;;;;;;;;;5022445;28;20494;-72
2023/09/15 07:07:15;;;;;;;835.83;585.07;;;;;;;;;;5025712;28;20488;-74
2023/09/15 07:09:42;;;;;;;855.70;619.33;;;;;;;;;;5019538;28;20794;-66
2023/09/15 07:12:09;;;;;;;860.03;622.20;;;;;;;;;;5013965;28;20530;-66
2023/09/15 07:14:37;;;;;;;856.08;612.33;;;;;;;;;;5021766;28;20531;-66
2023/09/15 07:17:05;;;;;;;854.22;510.23;;;;;;;;;;5021327;28;20437;-66
2023/09/15 07:19:32;;;;;;;848.83;606.35;;;;;;;;;;5033843;28;20445;-66
2023/09/15 07:21:59;;;;;;;883.35;639.78;;;;;;;;;;5022114;28;20431;-66
2023/09/15 07:24:26;;;;;;;858.03;627.88;;;;;;;;;;5024752;28;20650;-67
2023/09/15 07:26:54;;;;;;;880.17;624.42;;;;;;;;;;5013966;28;20528;-67
2023/09/15 07:29:21;;;;;;;871.13;644.17;;;;;;;;;;5015601;28;20530;-65
2023/09/15 07:31:48;;;;;;;875.80;654.40;;;;;;;;;;5025003;28;20923;-69
2023/09/15 07:34:16;;;;;;;872.25;535.80;;;;;;;;;;5023677;28;20543;-66
2023/09/15 07:36:50;;;;;;;880.47;669.50;;;;;;;;;;5019533;28;20530;-65
2023/09/15 07:39:17;;;;;;;862.75;504.23;;;;;;;;;;5025359;28;20500;-65
2023/09/15 07:41:48;;;;;;;858.95;592.55;;;;;;;;;;5022835;28;20485;-66
2023/09/15 07:44:15;;;;;;;843.85;618.63;;;;;;;;;;5016364;28;21284;-65
2023/09/15 07:46:42;;;;;;;875.78;670.22;;;;;;;;;;5019590;28;20438;-65
2023/09/15 07:49:10;;;;;;;875.47;674.07;;;;;;;;;;5029445;28;21005;-65
2023/09/15 07:51:37;;;;;;;863.05;599.08;;;;;;;;;;5025241;28;20429;-66
2023/09/15 07:54:05;;;;;;;850.70;632.50;;;;;;;;;;5025924;28;20454;-65
2023/09/15 07:56:32;;;;;;;852.08;636.33;;;;;;;;;;5017069;28;20502;-65
2023/09/15 07:58:59;;;;;;;863.88;652.28;;;;;;;;;;5020804;28;20573;-67
2023/09/15 08:01:26;;;;;;;870.42;658.90;;;;;;;;;;5021287;28;20902;-64
2023/09/15 08:03:53;;;;;;;864.83;641.60;;;;;;;;;;5019375;28;20446;-66
2023/09/15 08:06:21;;;;;;;849.65;631.03;;;;;;;;;;5035325;28;21198;-65
2023/09/15 08:08:48;;;;;;;854.47;635.13;;;;;;;;;;5023519;28;20429;-68
2023/09/15 08:11:15;;;;;;;863.13;642.33;;;;;;;;;;5022323;28;20440;-67
2023/09/15 08:13:42;;;;;;;867.95;654.88;;;;;;;;;;5027490;28;20445;-66
2023/09/15 08:16:10;;;;;;;859.20;642.78;;;;;;;;;;5034997;28;20443;-70
2023/09/15 08:18:37;;;;;;;871.60;652.00;;;;;;;;;;5023105;28;20434;-70
2023/09/15 08:21:05;;;;;;;852.42;630.55;;;;;;;;;;5022349;28;20518;-75
2023/09/15 08:23:33;;;;;;;856.28;641.33;;;;;;;;;;5024731;28;20434;-71
2023/09/15 08:26:04;;;;;;;875.03;658.38;;;;;;;;;;5024310;28;20461;-72
2023/09/15 08:28:31;;;;;;;858.30;638.85;;;;;;;;;;5024735;28;20962;-72
2023/09/15 08:30:59;;;;;;;867.75;650.65;;;;;;;;;;5021610;28;20430;-70
2023/09/15 08:33:27;;;;;;;846.78;617.33;;;;;;;;;;5023332;28;20437;-67
2023/09/15 08:35:57;;;;;;;852.50;630.10;;;;;;;;;;5013906;28;21096;-67
2023/09/15 08:38:25;;;;;;;859.15;645.58;;;;;;;;;;5015129;28;20504;-67
2023/09/15 08:40:56;;;;;;;853.83;633.53;;;;;;;;;;5020930;28;20423;-68
2023/09/15 08:43:27;;;;;;;859.65;651.08;;;;;;;;;;5023666;28;20866;-69
2023/09/15 08:45:55;;;;;;;862.35;659.63;;;;;;;;;;5019175;28;20908;-68
2023/09/15 08:48:27;;;;;;;850.57;649.90;;;;;;;;;;5022613;28;20458;-68
2023/09/15 08:50:55;;;;;;;862.17;671.00;;;;;;;;;;5026506;28;20494;-68
2023/09/15 08:53:23;;;;;;;869.80;670.22;;;;;;;;;;5025613;28;20451;-69
2023/09/15 08:55:53;;;;;;;865.47;670.15;;;;;;;;;;5026966;28;20743;-68
2023/09/15 08:58:20;;;;;;;900.58;709.78;;;;;;;;;;5017379;28;20438;-68
2023/09/15 09:00:47;;;;;;;895.83;707.53;;;;;;;;;;5018900;28;20802;-70
2023/09/15 09:03:15;;;;;;;881.95;692.00;;;;;;;;;;5020333;28;20430;-68
2023/09/15 09:05:48;;;;;;;863.88;672.45;;;;;;;;;;5019409;28;20864;-69
2023/09/15 09:08:17;;;;;;;855.92;665.25;;;;;;;;;;5025109;28;20554;-69
2023/09/15 09:10:45;;;;;;;866.53;678.42;;;;;;;;;;5031537;28;20468;-68
2023/09/15 09:13:15;;;;;;;896.70;715.00;;;;;;;;;;5025915;28;20463;-68
2023/09/15 09:15:51;;;;;;;871.65;676.03;;;;;;;;;;5016442;28;20455;-71
2023/09/15 09:18:21;;;;;;;868.88;673.50;;;;;;;;;;5021202;28;20439;-70
2023/09/15 09:20:51;;;;;;;889.65;701.85;;;;;;;;;;5024378;28;20482;-69
2023/09/15 09:23:19;;;;;;;891.85;697.00;;;;;;;;;;5027026;28;20431;-70
2023/09/15 09:25:46;;;;;;;876.35;683.33;;;;;;;;;;5022688;28;20435;-69
2023/09/15 09:28:14;;;;;;;878.63;692.72;;;;;;;;;;5035409;28;21089;-69
2023/09/15 09:30:44;;;;;;;881.93;697.33;;;;;;;;;;5016955;28;20558;-70
2023/09/15 09:33:12;;;;;;;872.13;691.65;;;;;;;;;;5031307;28;20437;-66
2023/09/15 09:35:39;;;;;;;875.40;693.77;;;;;;;;;;5024461;28;20530;-69
2023/09/15 09:38:06;;;;;;;903.25;733.88;;;;;;;;;;5022794;28;20439;-69
2023/09/15 09:40:36;;;;;;;882.35;701.63;;;;;;;;;;5026951;28;20943;-69
2023/09/15 09:43:04;;;;;;;905.75;742.90;;;;;;;;;;5024560;28;20427;-70
2023/09/15 09:45:31;;;;;;;884.53;705.40;;;;;;;;;;5021641;28;20454;-70
2023/09/15 09:48:01;;;;;;;883.70;707.15;;;;;;;;;;5020346;28;20431;-69
2023/09/15 09:50:31;;;;;;;876.22;711.30;;;;;;;;;;5018383;28;21149;-68
2023/09/15 09:52:58;;;;;;;894.05;726.40;;;;;;;;;;5022911;28;20461;-70
2023/09/15 09:55:25;;;;;;;919.38;765.58;;;;;;;;;;5022159;28;20538;-70
2023/09/15 09:57:53;;;;;;;916.00;753.20;;;;;;;;;;5027127;28;20434;-70
2023/09/15 10:00:22;;;;;;;917.45;758.70;;;;;;;;;;5028135;28;20925;-69
2023/09/15 10:02:50;;;;;;;921.83;777.78;;;;;;;;;;5021843;28;20492;-68
2023/09/15 10:05:17;;;;;;;941.00;806.30;;;;;;;;;;5021737;28;20489;-71
2023/09/15 10:07:46;;;;;;;937.03;805.83;;;;;;;;;;5033475;28;20523;-68
2023/09/15 10:10:17;;;;;;;934.17;801.08;;;;;;;;;;5022835;28;20450;-68
2023/09/15 10:12:45;;;;;;;936.85;792.03;;;;;;;;;;5025844;28;20869;-68
2023/09/15 10:15:12;;;;;;;935.13;786.67;;;;;;;;;;5021318;28;20512;-69
2023/09/15 10:17:43;;;;;;;926.00;787.53;;;;;;;;;;5025838;28;20429;-68
2023/09/15 10:20:11;;;;;;;937.92;806.72;;;;;;;;;;5043599;28;20521;-68
2023/09/15 10:22:44;;;;;;;943.28;799.10;;;;;;;;;;5023499;28;20521;-68
2023/09/15 10:25:21;;;;;;;940.30;817.85;;;;;;;;;;5022332;28;20488;-70
2023/09/15 10:27:48;;;;;;;945.08;824.83;;;;;;;;;;5022327;28;20440;-71
2023/09/15 10:30:19;;;;;;;949.47;821.22;;;;;;;;;;5023604;28;20442;-69
2023/09/15 10:32:46;;;;;;;958.13;851.78;;;;;;;;;;5027841;28;20858;-70
2023/09/15 10:35:16;;;;;;;942.45;813.75;;;;;;;;;;5026612;28;20766;-71
2023/09/15 10:37:44;;;;;;;944.28;821.28;;;;;;;;;;5019991;28;20528;-70
2023/09/15 10:40:14;;;;;;;939.10;820.50;;;;;;;;;;5026111;28;20997;-73
2023/09/15 10:42:49;;;;;;;961.75;850.00;;;;;;;;;;5026304;28;20875;-70
2023/09/15 10:45:22;;;;;;;942.40;820.28;;;;;;;;;;5026280;28;20469;-71
2023/09/15 10:47:56;;;;;;;948.42;829.72;;;;;;;;;;5025648;28;20438;-72
2023/09/15 10:50:33;;;;;;;951.38;841.58;;;;;;;;;;5025241;28;20443;-71
2023/09/15 10:53:09;;;;;;;987.35;879.50;;;;;;;;;;5021560;28;20438;-69
2023/09/15 10:55:37;;;;;;;941.38;824.25;;;;;;;;;;5025558;28;20562;-70
2023/09/15 10:58:05;;;;;;;950.08;832.83;;;;;;;;;;5026169;28;20435;-71
2023/09/15 11:00:32;;;;;;;941.97;821.15;;;;;;;;;;5025336;28;20431;-71
2023/09/15 11:03:00;;;;;;;922.30;794.75;;;;;;;;;;5022853;28;20550;-71
2023/09/15 11:05:27;;;;;;;932.65;812.97;;;;;;;;;;5025446;28;20545;-70
2023/09/15 11:07:56;;;;;;;926.80;803.73;;;;;;;;;;5021078;28;20439;-70
2023/09/15 11:10:32;;;;;;;929.05;803.38;;;;;;;;;;5040089;28;20462;-74
2023/09/15 11:13:01;;;;;;;930.00;803.28;;;;;;;;;;5028276;28;20916;-73
2023/09/15 11:15:28;;;;;;;928.92;800.08;;;;;;;;;;5026257;28;20466;-71
2023/09/15 11:17:56;;;;;;;926.28;789.20;;;;;;;;;;5024535;28;20466;-72
2023/09/15 11:20:27;;;;;;;920.63;783.42;;;;;;;;;;5053875;28;20431;-71
2023/09/15 11:22:57;;;;;;;920.90;773.55;;;;;;;;;;5020054;28;20528;-71
2023/09/15 11:25:24;;;;;;;946.33;824.05;;;;;;;;;;5020839;28;20454;-71
2023/09/15 11:27:54;;;;;;;975.80;868.72;;;;;;;;;;5024017;28;20519;-74
2023/09/15 11:30:26;;;;;;;1011.92;902.75;;;;;;;;;;5026371;28;20522;-71
2023/09/15 11:32:54;;;;;;;965.40;858.55;;;;;;;;;;5026760;28;20450;-71
2023/09/15 11:35:25;;;;;;;1001.10;892.75;;;;;;;;;;5033367;28;20471;-75
2023/09/15 11:37:53;;;;;;;972.17;865.15;;;;;;;;;;5023536;28;20430;-72
2023/09/15 11:40:23;;;;;;;974.28;866.92;;;;;;;;;;5038843;28;20435;-71
2023/09/15 11:42:56;;;;;;;969.58;862.85;;;;;;;;;;5025982;28;20431;-72
2023/09/15 11:45:25;;;;;;;991.88;884.08;;;;;;;;;;5049464;28;20430;-72
2023/09/15 11:47:53;;;;;;;982.17;875.22;;;;;;;;;;5027935;28;20442;-73
2023/09/15 11:50:21;;;;;;;1008.38;899.90;;;;;;;;;;5029466;28;20458;-72
2023/09/15 11:52:48;;;;;;;992.35;884.85;;;;;;;;;;5029636;28;20504;-74
2023/09/15 11:55:20;;;;;;;980.88;873.65;;;;;;;;;;5025867;28;20427;-72
2023/09/15 11:57:48;;;;;;;965.17;858.97;;;;;;;;;;5033780;28;20430;-76
2023/09/15 12:00:16;;;;;;;972.50;865.60;;;;;;;;;;5049383;28;20919;-73
2023/09/15 12:02:52;;;;;;;952.67;835.58;;;;;;;;;;5027683;28;20539;-74
2023/09/15 12:05:20;;;;;;;966.45;860.05;;;;;;;;;;5021028;28;20521;-76
2023/09/15 12:07:48;;;;;;;998.10;890.25;;;;;;;;;;5026419;28;20517;-75
2023/09/15 12:10:25;;;;;;;1000.90;892.93;;;;;;;;;;5023891;28;20460;-73
2023/09/15 12:12:58;;;;;;;994.90;887.15;;;;;;;;;;5025386;28;20909;-73
2023/09/15 12:15:28;;;;;;;984.05;876.95;;;;;;;;;;5027927;28;20436;-73
2023/09/15 12:17:56;;;;;;;919.67;780.43;;;;;;;;;;5043144;28;20810;-72
2023/09/15 12:20:24;;;;;;;986.72;879.33;;;;;;;;;;5030439;28;20444;-74
2023/09/15 12:22:52;;;;;;;1001.20;892.97;;;;;;;;;;5026569;28;20423;-74
2023/09/15 12:25:19;;;;;;;1039.22;929.45;;;;;;;;;;5022322;28;20517;-74
2023/09/15 12:27:47;;;;;;;1036.38;926.83;;;;;;;;;;5027848;28;20490;-72
2023/09/15 12:30:15;;;;;;;1023.45;914.67;;;;;;;;;;5024856;28;20449;-73
2023/09/15 12:32:48;;;;;;;1050.72;940.13;;;;;;;;;;5041244;28;20461;-72
2023/09/15 12:35:15;;;;;;;959.22;853.08;;;;;;;;;;5022587;28;20933;-73
2023/09/15 12:37:44;;;;;;;1084.03;971.17;;;;;;;;;;5015357;28;20541;-73
2023/09/15 12:40:12;;;;;;;1034.88;925.25;;;;;;;;;;5030091;28;20434;-72
2023/09/15 12:42:43;;;;;;;1006.03;898.03;;;;;;;;;;5032907;28;20436;-74
2023/09/15 12:45:11;;;;;;;952.78;847.63;;;;;;;;;;5026017;28;20462;-73
2023/09/15 12:47:39;;;;;;;973.63;866.80;;;;;;;;;;5021149;28;20510;-70
2023/09/15 12:50:07;;;;;;;1038.13;928.50;;;;;;;;;;5031389;28;20433;-72
2023/09/15 12:52:35;;;;;;;1034.10;924.50;;;;;;;;;;5030515;28;20437;-74
2023/09/15 12:55:03;;;;;;;1020.10;911.47;;;;;;;;;;5029433;28;21266;-73
2023/09/15 12:57:31;;;;;;;1032.50;923.20;;;;;;;;;;5026744;28;20427;-73
2023/09/15 12:59:58;;;;;;;1028.57;919.45;;;;;;;;;;5023848;28;20450;-76
2023/09/15 13:02:27;;;;;;;997.58;890.15;;;;;;;;;;5023150;28;20427;-75
2023/09/15 13:04:58;;;;;;;1028.30;919.38;;;;;;;;;;5020940;28;20435;-71
2023/09/15 13:07:25;;;;;;;1023.35;914.63;;;;;;;;;;5048854;28;20537;-73
2023/09/15 13:09:52;;;;;;;1030.85;921.45;;;;;;;;;;5025609;28;20465;-72
2023/09/15 13:12:22;;;;;;;1033.90;924.30;;;;;;;;;;5044462;28;20892;-73
2023/09/15 13:14:49;;;;;;;1053.88;943.63;;;;;;;;;;5023950;28;20469;-72
2023/09/15 13:17:17;;;;;;;1021.97;913.20;;;;;;;;;;5018731;28;20553;-74
2023/09/15 13:19:47;;;;;;;1018.55;910.03;;;;;;;;;;5026240;28;20426;-73
2023/09/15 13:22:17;;;;;;;1061.33;950.70;;;;;;;;;;5031122;28;20485;-72
2023/09/15 13:24:47;;;;;;;1045.97;936.10;;;;;;;;;;5031519;28;20446;-72
2023/09/15 13:27:14;;;;;;;1047.03;936.95;;;;;;;;;;5020266;28;20430;-72
2023/09/15 13:29:41;;;;;;;1046.32;936.03;;;;;;;;;;5047895;28;20434;-74
2023/09/15 13:32:08;;;;;;;1068.40;957.15;;;;;;;;;;5023851;28;20462;-72
2023/09/15 13:34:36;;;;;;;1046.35;936.22;;;;;;;;;;5022884;28;20431;-70
2023/09/15 13:37:03;;;;;;;1056.15;945.58;;;;;;;;;;5025753;28;20427;-71
2023/09/15 13:39:30;;;;;;;1048.38;938.20;;;;;;;;;;5026039;28;20545;-72
2023/09/15 13:41:57;;;;;;;1068.57;956.85;;;;;;;;;;5030176;28;20425;-74
2023/09/15 13:44:28;;;;;;;1058.43;947.58;;;;;;;;;;5025610;28;20536;-72
2023/09/15 13:46:56;;;;;;;1027.32;918.15;;;;;;;;;;5029458;28;20425;-72
2023/09/15 13:49:23;;;;;;;1055.45;944.72;;;;;;;;;;5030949;28;20427;-76
2023/09/15 13:51:50;;;;;;;1070.05;958.67;;;;;;;;;;5038860;28;20459;-73
2023/09/15 13:54:18;;;;;;;1049.67;939.10;;;;;;;;;;5021668;28;20423;-72
2023/09/15 13:56:49;;;;;;;1045.60;935.57;;;;;;;;;;5027912;28;20522;-73
2023/09/15 13:59:16;;;;;;;1026.07;916.90;;;;;;;;;;5035644;28;20429;-72